createdAt,value
2022-12-17T00:00:58.963Z,101957.19
2022-12-17T00:03:20.272Z,101954.72
2022-12-17T00:05:40.830Z,101953.63
2022-12-17T00:08:03.890Z,101961.13
2022-12-17T00:10:24.835Z,101955.69
2022-12-17T00:12:44.822Z,101955.94
2022-12-17T00:15:05.434Z,101964.75
2022-12-17T00:17:25.471Z,101953.72
2022-12-17T00:19:46.013Z,101954.19
2022-12-17T00:22:07.502Z,101951.66
2022-12-17T00:24:28.124Z,101950.50
2022-12-17T00:26:48.923Z,101944.53
2022-12-17T00:29:09.257Z,101948.84
2022-12-17T00:31:29.829Z,101955.25
2022-12-17T00:33:50.124Z,101947.09
2022-12-17T00:36:11.784Z,101952.53
2022-12-17T00:38:35.912Z,101950.09
2022-12-17T00:40:56.129Z,101946.88
2022-12-17T00:43:29.556Z,101950.63
2022-12-17T00:45:50.205Z,101943.66
2022-12-17T00:48:10.760Z,101948.53
2022-12-17T00:50:31.009Z,101944.44
2022-12-17T00:52:51.500Z,101938.47
2022-12-17T00:55:12.240Z,101939.47
2022-12-17T00:57:32.839Z,101946.31
2022-12-17T00:59:53.057Z,101940.47
2022-12-17T01:02:15.137Z,101938.94
2022-12-17T01:04:35.838Z,101936.16
2022-12-17T01:06:56.583Z,101939.59
2022-12-17T01:09:16.949Z,101938.69
2022-12-17T01:11:37.511Z,101932.34
2022-12-17T01:13:57.779Z,101942.59
2022-12-17T01:16:36.267Z,101939.59
2022-12-17T01:18:56.898Z,101950.91
2022-12-17T01:21:17.308Z,101950.91
2022-12-17T01:23:38.198Z,101948.56
2022-12-17T01:25:58.653Z,101950.13
2022-12-17T01:28:18.868Z,101958.84
2022-12-17T01:30:39.485Z,101956.84
2022-12-17T01:32:59.936Z,101961.72
2022-12-17T01:35:20.497Z,101960.16
2022-12-17T01:37:43.414Z,101961.72
2022-12-17T01:40:03.820Z,101962.22
2022-12-17T01:42:24.242Z,101958.81
2022-12-17T01:45:11.209Z,101954.41
2022-12-17T01:47:46.747Z,101958.47
2022-12-17T01:50:23.786Z,101957.25
2022-12-17T01:52:43.977Z,101962.09
2022-12-17T01:55:04.460Z,101959.34
2022-12-17T01:57:26.054Z,101961.00
2022-12-17T01:59:57.578Z,101964.53
2022-12-17T02:02:17.765Z,101966.81
2022-12-17T02:04:38.076Z,101973.69
2022-12-17T02:07:10.110Z,101974.19
2022-12-17T02:09:47.400Z,101987.53
2022-12-17T02:12:46.751Z,101984.53
2022-12-17T02:15:34.988Z,101974.69
2022-12-17T02:18:08.167Z,101980.00
2022-12-17T02:20:48.915Z,101973.03
2022-12-17T02:23:50.706Z,101976.69
2022-12-17T02:26:16.603Z,101984.53
2022-12-17T02:28:38.728Z,101977.16
2022-12-17T02:30:59.214Z,101977.16
2022-12-17T02:33:20.044Z,101974.63
2022-12-17T02:35:46.774Z,101973.75
2022-12-17T02:38:08.661Z,101974.63
2022-12-17T02:40:29.714Z,101971.53
2022-12-17T02:42:50.523Z,101971.38
2022-12-17T02:45:11.080Z,101975.16
2022-12-17T02:47:33.044Z,101977.69
2022-12-17T02:49:53.521Z,101977.69
2022-12-17T02:52:13.976Z,101974.16
2022-12-17T02:54:34.121Z,101973.75
2022-12-17T02:56:54.309Z,101974.84
2022-12-17T02:59:14.576Z,101974.19
2022-12-17T03:01:34.977Z,101968.91
2022-12-17T03:03:55.393Z,101966.00
2022-12-17T03:06:15.396Z,101968.59
2022-12-17T03:08:35.921Z,101967.72
2022-12-17T03:10:56.437Z,101972.50
2022-12-17T03:13:16.642Z,101963.84
2022-12-17T03:15:36.918Z,101969.31
2022-12-17T03:18:04.951Z,101961.75
2022-12-17T03:20:25.682Z,101959.72
2022-12-17T03:22:45.846Z,101966.22
2022-12-17T03:25:06.324Z,101964.66
2022-12-17T03:27:26.802Z,101964.72
2022-12-17T03:29:46.969Z,101962.75
2022-12-17T03:32:06.950Z,101956.75
2022-12-17T03:34:27.207Z,101961.19
2022-12-17T03:36:48.390Z,101959.38
2022-12-17T03:39:08.580Z,101960.28
2022-12-17T03:41:28.942Z,101955.25
2022-12-17T03:43:49.363Z,101951.94
2022-12-17T03:46:13.356Z,101947.03
2022-12-17T03:48:34.278Z,101942.66
2022-12-17T03:50:54.214Z,101943.56
2022-12-17T03:53:14.296Z,101947.19
2022-12-17T03:55:34.627Z,101942.25
2022-12-17T03:57:55.053Z,101944.50
2022-12-17T04:00:14.991Z,101950.44
2022-12-17T04:02:35.282Z,101947.38
2022-12-17T04:04:55.760Z,101942.94
2022-12-17T04:07:15.880Z,101943.63
2022-12-17T04:09:36.090Z,101945.91
2022-12-17T04:11:56.081Z,101943.06
2022-12-17T04:14:16.567Z,101938.66
2022-12-17T04:16:36.614Z,101938.31
2022-12-17T04:18:56.784Z,101931.69
2022-12-17T04:21:16.978Z,101938.06
2022-12-17T04:23:37.880Z,101933.47
2022-12-17T04:25:58.430Z,101935.78
2022-12-17T04:28:19.085Z,101937.81
2022-12-17T04:30:47.002Z,101925.25
2022-12-17T04:33:07.643Z,101928.56
2022-12-17T04:35:28.134Z,101925.09
2022-12-17T04:37:50.042Z,101928.91
2022-12-17T04:40:10.042Z,101934.69
2022-12-17T04:42:30.588Z,101927.75
2022-12-17T04:44:51.178Z,101943.25
2022-12-17T04:47:11.424Z,101936.34
2022-12-17T04:49:31.612Z,101931.53
2022-12-17T04:51:52.100Z,101936.16
2022-12-17T04:54:12.624Z,101941.47
2022-12-17T04:56:33.077Z,101941.72
2022-12-17T04:58:53.749Z,101937.53
2022-12-17T05:01:14.228Z,101952.97
2022-12-17T05:03:35.831Z,101942.94
2022-12-17T05:05:56.488Z,101944.19
2022-12-17T05:08:17.022Z,101949.47
2022-12-17T05:10:37.569Z,101953.13
2022-12-17T05:12:58.097Z,101947.72
2022-12-17T05:15:18.209Z,101950.69
2022-12-17T05:17:45.942Z,101946.66
2022-12-17T05:20:06.442Z,101954.38
2022-12-17T05:22:26.708Z,101956.13
2022-12-17T05:24:47.340Z,101955.91
2022-12-17T05:27:07.973Z,101958.31
2022-12-17T05:29:29.064Z,101951.16
2022-12-17T05:31:49.077Z,101949.50
2022-12-17T05:34:09.329Z,101950.88
2022-12-17T05:36:30.559Z,101947.66
2022-12-17T05:38:51.107Z,101958.03
2022-12-17T05:41:13.790Z,101953.63
2022-12-17T05:43:34.720Z,101957.53
2022-12-17T05:45:56.733Z,101958.63
2022-12-17T05:48:17.612Z,101963.25
2022-12-17T05:50:37.590Z,101965.16
2022-12-17T05:52:57.664Z,101963.72
2022-12-17T05:55:18.041Z,101966.47
2022-12-17T05:57:40.600Z,101973.22
2022-12-17T06:00:00.929Z,101969.78
2022-12-17T06:02:21.291Z,101964.81
2022-12-17T06:04:41.743Z,101965.78
2022-12-17T06:07:01.693Z,101963.41
2022-12-17T06:09:22.316Z,101964.69
2022-12-17T06:11:42.920Z,101969.25
2022-12-17T06:14:03.893Z,101964.16
2022-12-17T06:16:25.304Z,101966.34
2022-12-17T06:18:45.762Z,101969.00
2022-12-17T06:21:06.162Z,101972.34
2022-12-17T06:23:28.970Z,101969.91
2022-12-17T06:25:48.842Z,101968.25
2022-12-17T06:28:16.724Z,101973.91
2022-12-17T06:30:37.097Z,101974.97
2022-12-17T06:32:57.684Z,101977.00
2022-12-17T06:35:17.947Z,101977.97
2022-12-17T06:37:42.853Z,101976.34
2022-12-17T06:40:03.082Z,101981.63
2022-12-17T06:42:23.659Z,101975.69
2022-12-17T06:44:44.161Z,101975.03
2022-12-17T06:47:04.579Z,101971.06
2022-12-17T06:49:25.019Z,101969.97
2022-12-17T06:51:45.547Z,101966.66
2022-12-17T06:54:07.403Z,101968.63
2022-12-17T06:56:27.383Z,101968.09
2022-12-17T06:58:47.337Z,101970.38
2022-12-17T07:01:07.680Z,101970.38
2022-12-17T07:03:30.580Z,101973.50
2022-12-17T07:05:50.802Z,101973.03
2022-12-17T07:08:17.802Z,101975.06
2022-12-17T07:10:38.131Z,101977.47
2022-12-17T07:12:58.308Z,101975.94
2022-12-17T07:15:18.352Z,101977.91
2022-12-17T07:17:46.573Z,101977.47
2022-12-17T07:20:06.516Z,101978.38
2022-12-17T07:22:27.041Z,101970.41
2022-12-17T07:24:48.029Z,101975.16
2022-12-17T07:27:08.210Z,101975.06
2022-12-17T07:29:28.834Z,101969.09
2022-12-17T07:31:49.410Z,101983.34
2022-12-17T07:34:09.852Z,101981.56
2022-12-17T07:36:30.313Z,101984.34
2022-12-17T07:38:50.737Z,101987.19
2022-12-17T07:41:10.936Z,101984.78
2022-12-17T07:43:32.118Z,101994.28
2022-12-17T07:45:52.368Z,101999.38
2022-12-17T07:48:13.568Z,102001.81
2022-12-17T07:50:33.648Z,102010.53
2022-12-17T07:52:54.190Z,102010.09
2022-12-17T07:55:18.236Z,102009.06
2022-12-17T07:57:41.643Z,102013.16
2022-12-17T08:00:02.188Z,102008.66
2022-12-17T08:02:22.903Z,102006.88
2022-12-17T08:04:42.909Z,102010.19
2022-12-17T08:07:08.829Z,102014.94
2022-12-17T08:09:32.005Z,102005.97
2022-12-17T08:11:52.028Z,102014.38
2022-12-17T08:14:12.557Z,102014.25
2022-12-17T08:16:32.959Z,102013.06
2022-12-17T08:18:53.186Z,102015.19
2022-12-17T08:21:13.549Z,102015.03
2022-12-17T08:23:34.280Z,102016.38
2022-12-17T08:25:54.311Z,102007.75
2022-12-17T08:28:48.355Z,102027.63
2022-12-17T08:30:56.936Z,102016.16
2022-12-17T08:33:21.682Z,102024.78
2022-12-17T08:35:41.946Z,102021.25
2022-12-17T08:38:02.580Z,102024.31
2022-12-17T08:40:23.064Z,102024.78
2022-12-17T08:42:44.049Z,102025.00
2022-12-17T08:45:04.469Z,102024.78
2022-12-17T08:47:24.920Z,102021.91
2022-12-17T08:49:45.381Z,102025.88
2022-12-17T08:52:05.945Z,102019.25
2022-12-17T08:54:26.189Z,102022.53
2022-12-17T08:56:46.718Z,102018.78
2022-12-17T08:59:07.061Z,102014.47
2022-12-17T09:01:27.765Z,102023.00
2022-12-17T09:03:48.240Z,102031.50
2022-12-17T09:06:11.175Z,102033.16
2022-12-17T09:08:31.660Z,102042.56
2022-12-17T09:10:52.400Z,102041.25
2022-12-17T09:13:12.669Z,102038.47
2022-12-17T09:15:33.097Z,102040.91
2022-12-17T09:17:55.919Z,102043.13
2022-12-17T09:20:16.129Z,102041.78
2022-12-17T09:22:36.191Z,102036.47
2022-12-17T09:24:56.604Z,102035.91
2022-12-17T09:27:16.853Z,102031.50
2022-12-17T09:29:37.384Z,102034.94
2022-12-17T09:31:57.761Z,102034.72
2022-12-17T09:34:18.175Z,102039.78
2022-12-17T09:36:38.572Z,102035.78
2022-12-17T09:38:58.747Z,102036.13
2022-12-17T09:41:46.955Z,102046.72
2022-12-17T09:44:35.841Z,102045.44
2022-12-17T09:47:07.348Z,102045.94
2022-12-17T09:49:47.498Z,102035.44
2022-12-17T09:52:07.686Z,102043.63
2022-12-17T09:54:40.603Z,102039.06
2022-12-17T09:57:02.147Z,102039.75
2022-12-17T09:59:22.785Z,102037.63
2022-12-17T10:01:46.149Z,102041.84
2022-12-17T10:04:08.148Z,102042.03
2022-12-17T10:06:36.886Z,102046.91
2022-12-17T10:08:57.302Z,102049.44
2022-12-17T10:11:34.160Z,102051.50
2022-12-17T10:13:55.050Z,102045.66
2022-12-17T10:16:15.331Z,102054.28
2022-12-17T10:18:36.336Z,102054.50
2022-12-17T10:21:24.539Z,102060.47
2022-12-17T10:23:52.113Z,102060.81
2022-12-17T10:26:14.770Z,102063.44
2022-12-17T10:28:41.467Z,102061.22
2022-12-17T10:31:01.919Z,102064.53
2022-12-17T10:33:26.963Z,102061.78
2022-12-17T10:35:57.353Z,102058.41
2022-12-17T10:38:20.218Z,102060.19
2022-12-17T10:40:48.331Z,102060.91
2022-12-17T10:43:08.777Z,102059.25
2022-12-17T10:45:41.410Z,102048.59
2022-12-17T10:48:07.530Z,102052.47
2022-12-17T10:50:41.916Z,102064.75
2022-12-17T10:53:04.596Z,102055.44
2022-12-17T10:55:37.501Z,102055.38
2022-12-17T10:58:11.098Z,102047.41
2022-12-17T11:00:45.684Z,102052.94
2022-12-17T11:03:09.544Z,102050.22
2022-12-17T11:05:43.701Z,102046.19
2022-12-17T11:08:07.470Z,102044.66
2022-12-17T11:10:40.649Z,102047.03
2022-12-17T11:13:13.917Z,102048.22
2022-12-17T11:15:40.887Z,102040.78
2022-12-17T11:18:11.525Z,102040.13
2022-12-17T11:20:43.364Z,102048.06
2022-12-17T11:23:08.781Z,102040.22
2022-12-17T11:25:47.136Z,102038.38
2022-12-17T11:28:32.029Z,102036.97
2022-12-17T11:31:05.757Z,102040.03
2022-12-17T11:33:40.458Z,102038.84
2022-12-17T11:36:40.172Z,102041.88
2022-12-17T11:39:12.969Z,102045.22
2022-12-17T11:41:43.287Z,102039.72
2022-12-17T11:44:15.341Z,102043.38
2022-12-17T11:46:44.635Z,102040.50
2022-12-17T11:49:10.311Z,102037.16
2022-12-17T11:51:56.308Z,102039.34
2022-12-17T11:54:39.205Z,102032.69
2022-12-17T11:57:50.426Z,102023.53
2022-12-17T12:00:21.429Z,102016.66
2022-12-17T12:03:08.211Z,102019.84
2022-12-17T12:05:59.384Z,102023.50
2022-12-17T12:08:44.852Z,102015.66
2022-12-17T12:11:44.130Z,102020.59
2022-12-17T12:14:32.300Z,102022.81
2022-12-17T12:17:14.003Z,102024.63
2022-12-17T12:19:51.973Z,102015.13
2022-12-17T12:22:32.141Z,102015.38
2022-12-17T12:25:05.194Z,102016.16
2022-12-17T12:27:50.912Z,102021.38
2022-12-17T12:30:35.199Z,102013.22
2022-12-17T12:33:14.834Z,102010.94
2022-12-17T12:35:42.819Z,102008.56
2022-12-17T12:38:03.492Z,102011.34
2022-12-17T12:40:27.421Z,102009.34
2022-12-17T12:43:35.430Z,102003.44
2022-12-17T12:46:18.017Z,102002.19
2022-12-17T12:49:01.594Z,101997.16
2022-12-17T12:51:21.686Z,102004.44
2022-12-17T12:53:42.314Z,102006.34
2022-12-17T12:56:10.396Z,102005.56
2022-12-17T12:58:48.553Z,102013.69
2022-12-17T13:01:08.560Z,102010.25
2022-12-17T13:03:56.512Z,102012.19
2022-12-17T13:05:58.215Z,102015.63
2022-12-17T13:08:10.087Z,102006.97
2022-12-17T13:10:27.447Z,102011.31
2022-12-17T13:12:35.007Z,102021.72
2022-12-17T13:15:06.767Z,102018.22
2022-12-17T13:17:17.339Z,102010.34
2022-12-17T13:19:32.952Z,102012.28
2022-12-17T13:21:36.093Z,102023.56
2022-12-17T13:23:39.322Z,102021.63
2022-12-17T13:25:41.261Z,102019.34
2022-12-17T13:27:53.255Z,102013.25
2022-12-17T13:29:55.054Z,102028.19
2022-12-17T13:32:21.494Z,102029.72
2022-12-17T13:34:41.535Z,102035.50
2022-12-17T13:37:05.923Z,102027.84
2022-12-17T13:39:16.870Z,102024.09
2022-12-17T13:41:21.431Z,102024.63
2022-12-17T13:43:27.245Z,102032.94
2022-12-17T13:45:34.367Z,102030.56
2022-12-17T13:48:00.769Z,102033.81
2022-12-17T13:50:34.904Z,102036.03
2022-12-17T13:52:37.189Z,102029.56
2022-12-17T13:54:38.999Z,102027.88
2022-12-17T13:56:40.901Z,102032.66
2022-12-17T13:58:43.141Z,102030.28
2022-12-17T14:00:44.852Z,102037.56
2022-12-17T14:02:46.766Z,102030.69
2022-12-17T14:04:53.596Z,102037.50
2022-12-17T14:07:03.300Z,102038.03
2022-12-17T14:09:05.560Z,102042.53
2022-12-17T14:11:26.062Z,102039.72
2022-12-17T14:13:27.785Z,102047.00
2022-12-17T14:15:31.853Z,102039.16
2022-12-17T14:17:51.234Z,102042.34
2022-12-17T14:20:02.495Z,102035.22
2022-12-17T14:22:04.239Z,102046.41
2022-12-17T14:24:06.426Z,102046.38
2022-12-17T14:26:12.429Z,102044.09
2022-12-17T14:28:25.210Z,102051.00
2022-12-17T14:30:33.095Z,102056.34
2022-12-17T14:32:36.623Z,102052.81
2022-12-17T14:34:42.236Z,102064.81
2022-12-17T14:36:44.488Z,102059.13
2022-12-17T14:38:57.670Z,102073.06
2022-12-17T14:41:39.397Z,102064.63
2022-12-17T14:43:41.374Z,102071.50
2022-12-17T14:46:16.737Z,102068.41
2022-12-17T14:48:18.459Z,102072.31
2022-12-17T14:50:20.067Z,102070.06
2022-12-17T14:52:35.676Z,102062.31
2022-12-17T14:54:44.545Z,102066.81
2022-12-17T14:56:49.359Z,102063.09
2022-12-17T14:58:51.019Z,102066.97
2022-12-17T15:01:08.184Z,102064.75
2022-12-17T15:03:15.830Z,102063.88
2022-12-17T15:05:17.915Z,102062.19
2022-12-17T15:07:27.725Z,102061.97
2022-12-17T15:09:29.491Z,102061.69
2022-12-17T15:11:31.181Z,102063.03
2022-12-17T15:13:33.074Z,102064.81
2022-12-17T15:15:34.804Z,102066.56
2022-12-17T15:17:46.149Z,102076.41
2022-12-17T15:19:51.445Z,102083.75
2022-12-17T15:21:57.678Z,102078.06
2022-12-17T15:23:59.520Z,102086.63
2022-12-17T15:26:01.648Z,102081.03
2022-12-17T15:28:03.367Z,102087.19
2022-12-17T15:30:05.614Z,102079.16
2022-12-17T15:32:07.644Z,102086.94
2022-12-17T15:34:11.630Z,102084.38
2022-12-17T15:36:13.442Z,102077.50
2022-12-17T15:38:15.109Z,102077.41
2022-12-17T15:40:16.751Z,102072.38
2022-12-17T15:42:36.806Z,102063.63
2022-12-17T15:44:38.497Z,102070.50
2022-12-17T15:46:40.273Z,102068.75
2022-12-17T15:48:48.122Z,102063.47
2022-12-17T15:50:51.767Z,102061.59
2022-12-17T15:52:53.399Z,102064.56
2022-12-17T15:54:55.393Z,102079.59
2022-12-17T15:56:58.311Z,102066.41
2022-12-17T15:59:00.364Z,102062.16
2022-12-17T16:01:06.331Z,102053.53
2022-12-17T16:03:08.402Z,102051.31
2022-12-17T16:05:10.689Z,102052.09
2022-12-17T16:07:12.746Z,102049.53
2022-12-17T16:09:14.672Z,102054.66
2022-12-17T16:11:16.778Z,102058.91
2022-12-17T16:13:18.749Z,102061.94
2022-12-17T16:15:20.768Z,102061.75
2022-12-17T16:17:22.822Z,102063.34
2022-12-17T16:19:24.831Z,102070.16
2022-12-17T16:21:26.772Z,102069.81
2022-12-17T16:23:28.840Z,102076.88
2022-12-17T16:25:30.932Z,102083.06
2022-12-17T16:27:33.066Z,102079.44
2022-12-17T16:29:35.064Z,102086.59
2022-12-17T16:31:37.649Z,102079.72
2022-12-17T16:33:42.044Z,102078.22
2022-12-17T16:35:51.434Z,102074.97
2022-12-17T16:37:53.429Z,102080.69
2022-12-17T16:39:59.913Z,102081.56
2022-12-17T16:42:02.286Z,102078.75
2022-12-17T16:44:05.338Z,102082.38
2022-12-17T16:46:25.366Z,102084.75
2022-12-17T16:48:27.466Z,102093.22
2022-12-17T16:50:30.815Z,102086.75
2022-12-17T16:52:34.075Z,102088.91
2022-12-17T16:54:36.082Z,102086.22
2022-12-17T16:56:40.384Z,102083.16
2022-12-17T16:58:43.252Z,102079.03
2022-12-17T17:00:46.549Z,102079.03
2022-12-17T17:02:53.032Z,102086.03
2022-12-17T17:04:55.673Z,102076.59
2022-12-17T17:06:58.021Z,102081.97
2022-12-17T17:09:00.055Z,102079.34
2022-12-17T17:11:07.297Z,102081.63
2022-12-17T17:13:09.636Z,102089.88
2022-12-17T17:15:11.885Z,102092.25
2022-12-17T17:17:14.041Z,102094.81
2022-12-17T17:19:16.178Z,102098.75
2022-12-17T17:21:19.974Z,102084.41
2022-12-17T17:23:22.240Z,102079.13
2022-12-17T17:25:24.264Z,102081.06
2022-12-17T17:27:26.278Z,102085.47
2022-12-17T17:29:28.594Z,102086.66
2022-12-17T17:33:53.880Z,102086.19
2022-12-17T17:35:59.670Z,102088.94
2022-12-17T17:38:05.907Z,102080.66
2022-12-17T17:40:08.922Z,102093.03
2022-12-17T17:42:10.949Z,102101.09
2022-12-17T17:44:14.225Z,102098.75
2022-12-17T17:46:18.399Z,102110.06
2022-12-17T17:48:20.395Z,102106.72
2022-12-17T17:50:22.378Z,102101.44
2022-12-17T17:52:24.348Z,102099.84
2022-12-17T17:54:26.505Z,102097.31
2022-12-17T17:56:31.413Z,102101.34
2022-12-17T17:58:34.693Z,102103.41
2022-12-17T18:00:37.889Z,102095.66
2022-12-17T18:02:40.610Z,102103.09
2022-12-17T18:04:43.000Z,102101.38
2022-12-17T18:07:16.104Z,102102.94
2022-12-17T18:09:09.405Z,102105.69
2022-12-17T18:11:13.972Z,102101.84
2022-12-17T18:13:19.110Z,102106.47
2022-12-17T18:15:21.190Z,102099.81
2022-12-17T18:17:23.214Z,102105.88
2022-12-17T18:19:25.175Z,102106.47
2022-12-17T18:21:29.005Z,102113.53
2022-12-17T18:23:31.049Z,102110.38
2022-12-17T18:25:37.731Z,102111.09
2022-12-17T18:27:40.184Z,102123.84
2022-12-17T18:29:42.165Z,102115.31
2022-12-17T18:31:50.005Z,102118.44
2022-12-17T18:33:57.040Z,102114.00
2022-12-17T18:35:59.029Z,102109.81
2022-12-17T18:38:00.947Z,102117.47
2022-12-17T18:40:04.112Z,102104.31
2022-12-17T18:42:09.385Z,102103.81
2022-12-17T18:44:12.761Z,102095.88
2022-12-17T18:46:18.004Z,102099.41
2022-12-17T18:48:23.951Z,102097.13
2022-12-17T18:50:25.849Z,102101.06
2022-12-17T18:52:28.461Z,102105.97
2022-12-17T18:54:31.819Z,102106.44
2022-12-17T18:57:00.003Z,102111.16
2022-12-17T18:58:57.482Z,102122.34
2022-12-17T19:00:59.547Z,102123.50
2022-12-17T19:03:01.750Z,102113.91
2022-12-17T19:05:04.484Z,102112.16
2022-12-17T19:07:06.723Z,102110.56
2022-12-17T19:09:15.575Z,102119.88
2022-12-17T19:11:21.357Z,102117.69
2022-12-17T19:13:23.344Z,102116.31
2022-12-17T19:15:25.309Z,102117.41
2022-12-17T19:17:27.311Z,102125.25
2022-12-17T19:19:29.550Z,102124.75
2022-12-17T19:21:33.889Z,102121.06
2022-12-17T19:23:36.220Z,102127.25
2022-12-17T19:25:38.216Z,102132.25
2022-12-17T19:27:40.161Z,102123.81
2022-12-17T19:29:47.615Z,102122.84
2022-12-17T19:31:51.152Z,102121.22
2022-12-17T19:33:56.688Z,102123.38
2022-12-17T19:36:01.897Z,102122.00
2022-12-17T19:38:03.952Z,102120.44
2022-12-17T19:40:06.772Z,102126.22
2022-12-17T19:42:25.079Z,102121.38
2022-12-17T19:44:27.495Z,102124.34
2022-12-17T19:46:31.159Z,102120.41
2022-12-17T19:48:34.671Z,102114.97
2022-12-17T19:50:36.720Z,102116.91
2022-12-17T19:52:38.647Z,102117.22
2022-12-17T19:54:40.614Z,102116.22
2022-12-17T19:56:44.571Z,102119.63
2022-12-17T19:58:48.888Z,102116.03
2022-12-17T20:00:52.358Z,102120.91
2022-12-17T20:02:54.557Z,102127.13
2022-12-17T20:04:56.845Z,102125.66
2022-12-17T20:07:00.817Z,102130.91
2022-12-17T20:09:05.304Z,102126.22
2022-12-17T20:11:29.450Z,102130.16
2022-12-17T20:13:31.426Z,102129.88
2022-12-17T20:15:33.477Z,102126.34
2022-12-17T20:17:35.443Z,102131.44
2022-12-17T20:19:37.482Z,102127.00
2022-12-17T20:21:39.973Z,102127.66
2022-12-17T20:23:41.955Z,102127.34
2022-12-17T20:25:43.905Z,102134.88
2022-12-17T20:27:45.939Z,102143.84
2022-12-17T20:29:48.307Z,102140.94
2022-12-17T20:31:51.498Z,102151.00
2022-12-17T20:33:53.602Z,102148.47
2022-12-17T20:35:55.812Z,102139.72
2022-12-17T20:37:57.734Z,102147.13
2022-12-17T20:39:59.686Z,102146.38
2022-12-17T20:42:01.684Z,102147.50
2022-12-17T20:44:07.085Z,102143.97
2022-12-17T20:46:10.563Z,102131.00
2022-12-17T20:48:13.551Z,102129.47
2022-12-17T20:50:15.563Z,102128.81
2022-12-17T20:52:17.548Z,102139.38
2022-12-17T20:54:19.521Z,102136.59
2022-12-17T20:56:25.383Z,102128.38
2022-12-17T20:58:27.373Z,102135.69
2022-12-17T21:00:29.309Z,102138.44
2022-12-17T21:02:31.450Z,102132.81
2022-12-17T21:04:33.595Z,102132.81
2022-12-17T21:06:39.498Z,102138.81
2022-12-17T21:08:47.888Z,102138.28
2022-12-17T21:10:56.687Z,102142.69
2022-12-17T21:13:01.684Z,102143.31
2022-12-17T21:15:04.195Z,102147.25
2022-12-17T21:17:06.288Z,102146.72
2022-12-17T21:19:09.350Z,102146.94
2022-12-17T21:21:14.520Z,102153.22
2022-12-17T21:23:16.431Z,102147.72
2022-12-17T21:25:18.611Z,102149.28
2022-12-17T21:27:22.484Z,102159.56
2022-12-17T21:29:24.936Z,102165.44
2022-12-17T21:31:29.706Z,102157.25
2022-12-17T21:33:32.084Z,102158.69
2022-12-17T21:35:34.651Z,102162.34
2022-12-17T21:37:36.699Z,102159.69
2022-12-17T21:39:38.681Z,102161.44
2022-12-17T21:41:44.979Z,102162.13
2022-12-17T21:43:47.328Z,102164.31
2022-12-17T21:45:49.440Z,102165.09
2022-12-17T21:47:51.518Z,102171.09
2022-12-17T21:49:53.442Z,102168.63
2022-12-17T21:51:55.618Z,102175.50
2022-12-17T21:54:00.232Z,102175.81
2022-12-17T21:56:05.067Z,102168.75
2022-12-17T21:58:08.203Z,102168.22
2022-12-17T22:00:11.086Z,102168.53
2022-12-17T22:02:13.228Z,102169.84
2022-12-17T22:04:15.461Z,102163.25
2022-12-17T22:06:20.767Z,102161.69
2022-12-17T22:08:24.321Z,102159.66
2022-12-17T22:10:46.759Z,102155.81
2022-12-17T22:12:51.619Z,102160.69
2022-12-17T22:14:53.616Z,102158.25
2022-12-17T22:16:56.281Z,102156.03
2022-12-17T22:19:00.373Z,102163.19
2022-12-17T22:21:03.792Z,102156.81
2022-12-17T22:23:05.867Z,102166.75
2022-12-17T22:25:10.775Z,102172.06
2022-12-17T22:27:14.744Z,102163.34
2022-12-17T22:29:37.194Z,102151.81
2022-12-17T22:31:42.628Z,102149.94
2022-12-17T22:34:13.664Z,102148.81
2022-12-17T22:38:06.144Z,102136.88
2022-12-17T22:42:54.357Z,102136.56
2022-12-17T22:44:40.880Z,102129.72
2022-12-17T22:44:43.982Z,102121.50
2022-12-17T22:45:43.211Z,102118.31
2022-12-17T22:47:45.295Z,102112.56
2022-12-17T22:49:47.209Z,102113.00
2022-12-17T22:51:49.248Z,102113.19
2022-12-17T22:53:52.040Z,102112.44
2022-12-17T22:55:54.294Z,102107.44
2022-12-17T22:57:57.500Z,102109.66
2022-12-17T22:59:59.465Z,102110.88
2022-12-17T23:02:01.571Z,102102.81
2022-12-17T23:04:03.966Z,102105.25
2022-12-17T23:06:09.028Z,102103.91
2022-12-17T23:08:11.038Z,102105.47
2022-12-17T23:10:12.973Z,102107.69
2022-12-17T23:12:18.128Z,102113.31
2022-12-17T23:14:20.152Z,102114.09
2022-12-17T23:16:22.482Z,102121.81
2022-12-17T23:18:24.825Z,102112.31
2022-12-17T23:20:28.885Z,102116.69
2022-12-17T23:22:30.871Z,102105.78
2022-12-17T23:24:32.930Z,102109.88
2022-12-17T23:26:36.703Z,102096.63
2022-12-17T23:28:38.997Z,102095.94
2022-12-17T23:30:40.945Z,102093.03
2022-12-17T23:32:43.352Z,102091.09
2022-12-17T23:34:45.320Z,102088.63
2022-12-17T23:36:47.645Z,102086.78
2022-12-17T23:38:49.740Z,102087.53
2022-12-17T23:40:51.771Z,102088.63
2022-12-17T23:42:53.756Z,102091.75
2022-12-17T23:44:55.747Z,102096.38
2022-12-17T23:46:57.806Z,102099.00
2022-12-17T23:48:59.802Z,102103.22
2022-12-17T23:51:02.568Z,102103.78
2022-12-17T23:53:04.450Z,102106.81
2022-12-17T23:55:07.250Z,102105.00
2022-12-17T23:57:09.349Z,102107.53
2022-12-17T23:59:11.499Z,102101.47
